sensor_id;sensor_type;location;lat;lon;timestamp;pressure;altitude;pressure_sealevel;temperature;humidity
29359;BME280;16347;53.232;6.556;2023-02-17T00:02:20;101653.34;;;10.45;87.21
29359;BME280;16347;53.232;6.556;2023-02-17T00:04:48;101669.25;;;10.40;87.32
29359;BME280;16347;53.232;6.556;2023-02-17T00:07:17;101647.50;;;10.49;87.11
29359;BME280;16347;53.232;6.556;2023-02-17T00:09:46;101656.50;;;10.40;86.70
29359;BME280;16347;53.232;6.556;2023-02-17T00:12:14;101662.03;;;10.29;87.44
29359;BME280;16347;53.232;6.556;2023-02-17T00:14:42;101654.19;;;10.36;87.47
29359;BME280;16347;53.232;6.556;2023-02-17T00:17:10;101647.31;;;10.41;87.63
29359;BME280;16347;53.232;6.556;2023-02-17T00:19:38;101648.06;;;10.43;87.14
29359;BME280;16347;53.232;6.556;2023-02-17T00:22:06;101629.78;;;10.55;86.88
29359;BME280;16347;53.232;6.556;2023-02-17T00:24:38;101612.72;;;10.43;86.87
29359;BME280;16347;53.232;6.556;2023-02-17T00:27:06;101622.06;;;10.50;86.70
29359;BME280;16347;53.232;6.556;2023-02-17T00:29:34;101605.16;;;10.47;86.60
29359;BME280;16347;53.232;6.556;2023-02-17T00:32:03;101607.31;;;10.53;86.70
29359;BME280;16347;53.232;6.556;2023-02-17T00:34:31;101605.00;;;10.48;86.98
29359;BME280;16347;53.232;6.556;2023-02-17T00:37:00;101609.84;;;10.45;86.74
29359;BME280;16347;53.232;6.556;2023-02-17T00:39:28;101609.44;;;10.40;87.26
29359;BME280;16347;53.232;6.556;2023-02-17T00:41:57;101607.19;;;10.64;86.70
29359;BME280;16347;53.232;6.556;2023-02-17T00:44:28;101612.88;;;10.51;86.99
29359;BME280;16347;53.232;6.556;2023-02-17T00:46:56;101606.44;;;10.43;86.93
29359;BME280;16347;53.232;6.556;2023-02-17T00:49:25;101608.19;;;10.63;86.68
29359;BME280;16347;53.232;6.556;2023-02-17T00:51:53;101613.75;;;10.52;86.44
29359;BME280;16347;53.232;6.556;2023-02-17T00:54:21;101602.72;;;10.44;86.71
29359;BME280;16347;53.232;6.556;2023-02-17T00:56:50;101607.41;;;10.42;86.88
29359;BME280;16347;53.232;6.556;2023-02-17T00:59:19;101606.44;;;10.52;86.71
29359;BME280;16347;53.232;6.556;2023-02-17T01:01:47;101607.69;;;10.29;87.05
29359;BME280;16347;53.232;6.556;2023-02-17T01:04:15;101608.59;;;10.49;87.61
29359;BME280;16347;53.232;6.556;2023-02-17T01:06:45;101613.88;;;10.41;87.52
29359;BME280;16347;53.232;6.556;2023-02-17T01:09:14;101608.84;;;10.36;88.03
29359;BME280;16347;53.232;6.556;2023-02-17T01:11:42;101601.69;;;10.35;88.21
29359;BME280;16347;53.232;6.556;2023-02-17T01:14:12;101608.44;;;10.41;87.95
29359;BME280;16347;53.232;6.556;2023-02-17T01:16:44;101598.56;;;10.40;88.04
29359;BME280;16347;53.232;6.556;2023-02-17T01:19:17;101596.16;;;10.65;87.16
29359;BME280;16347;53.232;6.556;2023-02-17T01:21:46;101577.56;;;10.80;86.67
29359;BME280;16347;53.232;6.556;2023-02-17T01:24:16;101575.84;;;10.60;86.86
29359;BME280;16347;53.232;6.556;2023-02-17T01:26:44;101581.38;;;10.49;87.26
29359;BME280;16347;53.232;6.556;2023-02-17T01:29:12;101590.72;;;10.56;87.49
29359;BME280;16347;53.232;6.556;2023-02-17T01:31:44;101581.97;;;10.43;87.75
29359;BME280;16347;53.232;6.556;2023-02-17T01:34:12;101581.00;;;10.63;87.61
29359;BME280;16347;53.232;6.556;2023-02-17T01:36:40;101586.25;;;10.55;87.21
29359;BME280;16347;53.232;6.556;2023-02-17T01:39:11;101593.31;;;10.57;87.16
29359;BME280;16347;53.232;6.556;2023-02-17T01:41:39;101592.84;;;10.62;87.14
29359;BME280;16347;53.232;6.556;2023-02-17T01:44:14;101579.31;;;10.81;86.11
29359;BME280;16347;53.232;6.556;2023-02-17T01:46:45;101566.81;;;10.78;85.89
29359;BME280;16347;53.232;6.556;2023-02-17T01:49:22;101563.81;;;10.72;85.76
29359;BME280;16347;53.232;6.556;2023-02-17T01:51:54;101562.97;;;10.81;85.79
29359;BME280;16347;53.232;6.556;2023-02-17T01:54:26;101568.69;;;10.68;86.02
29359;BME280;16347;53.232;6.556;2023-02-17T01:56:57;101555.53;;;10.64;86.02
29359;BME280;16347;53.232;6.556;2023-02-17T01:59:27;101542.34;;;10.59;85.92
29359;BME280;16347;53.232;6.556;2023-02-17T02:02:01;101551.50;;;10.58;86.16
29359;BME280;16347;53.232;6.556;2023-02-17T02:04:33;101553.97;;;10.71;85.98
29359;BME280;16347;53.232;6.556;2023-02-17T02:07:05;101551.66;;;10.76;85.64
29359;BME280;16347;53.232;6.556;2023-02-17T02:09:39;101559.41;;;10.71;85.77
29359;BME280;16347;53.232;6.556;2023-02-17T02:12:17;101550.94;;;10.74;85.32
29359;BME280;16347;53.232;6.556;2023-02-17T02:14:45;101541.47;;;10.78;85.52
29359;BME280;16347;53.232;6.556;2023-02-17T02:17:25;101535.78;;;10.81;85.28
29359;BME280;16347;53.232;6.556;2023-02-17T02:20:12;101533.47;;;10.67;85.60
29359;BME280;16347;53.232;6.556;2023-02-17T02:23:01;101522.59;;;10.67;85.88
29359;BME280;16347;53.232;6.556;2023-02-17T02:26:03;101535.47;;;10.65;85.51
29359;BME280;16347;53.232;6.556;2023-02-17T02:28:44;101520.88;;;10.75;85.63
29359;BME280;16347;53.232;6.556;2023-02-17T02:31:25;101514.69;;;10.45;86.09
29359;BME280;16347;53.232;6.556;2023-02-17T02:33:58;101533.19;;;10.51;86.52
29359;BME280;16347;53.232;6.556;2023-02-17T02:36:30;101529.91;;;10.57;86.41
29359;BME280;16347;53.232;6.556;2023-02-17T02:39:03;101536.44;;;10.54;86.15
29359;BME280;16347;53.232;6.556;2023-02-17T02:41:37;101511.16;;;10.54;85.97
29359;BME280;16347;53.232;6.556;2023-02-17T02:44:13;101505.41;;;10.66;85.54
29359;BME280;16347;53.232;6.556;2023-02-17T02:46:41;101505.41;;;10.66;85.78
29359;BME280;16347;53.232;6.556;2023-02-17T02:49:11;101509.72;;;10.69;85.50
29359;BME280;16347;53.232;6.556;2023-02-17T02:51:45;101501.84;;;10.56;85.85
29359;BME280;16347;53.232;6.556;2023-02-17T02:54:26;101505.13;;;10.60;86.19
29359;BME280;16347;53.232;6.556;2023-02-17T02:57:13;101501.97;;;10.55;85.90
29359;BME280;16347;53.232;6.556;2023-02-17T02:59:53;101480.09;;;10.47;85.99
29359;BME280;16347;53.232;6.556;2023-02-17T03:02:29;101476.63;;;10.45;85.79
29359;BME280;16347;53.232;6.556;2023-02-17T03:05:03;101447.03;;;10.42;85.82
29359;BME280;16347;53.232;6.556;2023-02-17T03:07:37;101458.19;;;10.48;86.23
29359;BME280;16347;53.232;6.556;2023-02-17T03:10:08;101448.31;;;10.28;85.86
29359;BME280;16347;53.232;6.556;2023-02-17T03:12:37;101444.59;;;10.48;85.90
29359;BME280;16347;53.232;6.556;2023-02-17T03:15:12;101443.03;;;10.46;85.66
29359;BME280;16347;53.232;6.556;2023-02-17T03:17:41;101429.84;;;10.41;85.73
29359;BME280;16347;53.232;6.556;2023-02-17T03:20:12;101430.13;;;10.48;85.26
29359;BME280;16347;53.232;6.556;2023-02-17T03:22:42;101426.81;;;10.73;84.46
29359;BME280;16347;53.232;6.556;2023-02-17T03:25:14;101432.00;;;10.57;84.32
29359;BME280;16347;53.232;6.556;2023-02-17T03:27:43;101412.69;;;10.41;84.90
29359;BME280;16347;53.232;6.556;2023-02-17T03:30:13;101408.25;;;10.49;84.62
29359;BME280;16347;53.232;6.556;2023-02-17T03:32:41;101414.41;;;10.42;85.36
29359;BME280;16347;53.232;6.556;2023-02-17T03:35:11;101408.69;;;10.35;85.01
29359;BME280;16347;53.232;6.556;2023-02-17T03:37:39;101420.28;;;10.47;85.05
29359;BME280;16347;53.232;6.556;2023-02-17T03:40:08;101428.44;;;10.47;85.02
29359;BME280;16347;53.232;6.556;2023-02-17T03:42:36;101404.53;;;10.50;85.26
29359;BME280;16347;53.232;6.556;2023-02-17T03:45:05;101392.91;;;10.58;84.89
29359;BME280;16347;53.232;6.556;2023-02-17T03:47:32;101392.06;;;10.57;84.43
29359;BME280;16347;53.232;6.556;2023-02-17T03:50:01;101402.22;;;10.65;84.37
29359;BME280;16347;53.232;6.556;2023-02-17T03:52:31;101397.97;;;10.43;84.55
29359;BME280;16347;53.232;6.556;2023-02-17T03:54:59;101399.09;;;10.50;84.63
29359;BME280;16347;53.232;6.556;2023-02-17T03:57:27;101392.66;;;10.42;84.78
29359;BME280;16347;53.232;6.556;2023-02-17T03:59:57;101395.63;;;10.58;84.41
29359;BME280;16347;53.232;6.556;2023-02-17T04:02:25;101393.31;;;10.72;83.73
29359;BME280;16347;53.232;6.556;2023-02-17T04:04:53;101401.22;;;10.66;83.40
29359;BME280;16347;53.232;6.556;2023-02-17T04:07:22;101391.50;;;10.54;83.58
29359;BME280;16347;53.232;6.556;2023-02-17T04:09:51;101396.66;;;10.47;84.30
29359;BME280;16347;53.232;6.556;2023-02-17T04:12:19;101401.09;;;10.48;84.06
29359;BME280;16347;53.232;6.556;2023-02-17T04:14:47;101393.22;;;10.45;84.09
29359;BME280;16347;53.232;6.556;2023-02-17T04:17:15;101382.53;;;10.34;84.30
29359;BME280;16347;53.232;6.556;2023-02-17T04:19:43;101386.50;;;10.40;84.66
29359;BME280;16347;53.232;6.556;2023-02-17T04:22:11;101399.81;;;10.43;83.95
29359;BME280;16347;53.232;6.556;2023-02-17T04:24:39;101402.09;;;10.38;84.35
29359;BME280;16347;53.232;6.556;2023-02-17T04:27:08;101392.53;;;10.34;84.54
29359;BME280;16347;53.232;6.556;2023-02-17T04:29:36;101378.66;;;10.37;84.14
29359;BME280;16347;53.232;6.556;2023-02-17T04:32:05;101375.19;;;10.54;83.69
29359;BME280;16347;53.232;6.556;2023-02-17T04:34:33;101372.75;;;10.60;83.56
29359;BME280;16347;53.232;6.556;2023-02-17T04:37:00;101374.63;;;10.31;84.39
29359;BME280;16347;53.232;6.556;2023-02-17T04:39:29;101362.34;;;10.37;84.38
29359;BME280;16347;53.232;6.556;2023-02-17T04:41:57;101379.22;;;10.31;84.55
29359;BME280;16347;53.232;6.556;2023-02-17T04:44:26;101364.22;;;10.26;84.97
29359;BME280;16347;53.232;6.556;2023-02-17T04:46:54;101380.06;;;10.31;85.17
29359;BME280;16347;53.232;6.556;2023-02-17T04:49:22;101374.06;;;10.18;85.39
29359;BME280;16347;53.232;6.556;2023-02-17T04:51:50;101374.94;;;10.18;85.18
29359;BME280;16347;53.232;6.556;2023-02-17T04:54:19;101386.34;;;10.12;85.38
29359;BME280;16347;53.232;6.556;2023-02-17T04:56:48;101362.75;;;10.42;84.99
29359;BME280;16347;53.232;6.556;2023-02-17T04:59:16;101338.00;;;10.35;84.75
29359;BME280;16347;53.232;6.556;2023-02-17T05:01:46;101348.16;;;10.43;84.44
29359;BME280;16347;53.232;6.556;2023-02-17T05:04:14;101341.91;;;10.23;84.91
29359;BME280;16347;53.232;6.556;2023-02-17T05:06:42;101365.06;;;10.27;85.03
29359;BME280;16347;53.232;6.556;2023-02-17T05:09:10;101368.06;;;10.34;85.28
29359;BME280;16347;53.232;6.556;2023-02-17T05:11:38;101393.53;;;10.23;85.08
29359;BME280;16347;53.232;6.556;2023-02-17T05:14:06;101381.94;;;10.31;85.30
29359;BME280;16347;53.232;6.556;2023-02-17T05:16:34;101386.38;;;10.22;85.33
29359;BME280;16347;53.232;6.556;2023-02-17T05:19:04;101385.94;;;10.36;85.35
29359;BME280;16347;53.232;6.556;2023-02-17T05:21:32;101354.50;;;10.24;85.63
29359;BME280;16347;53.232;6.556;2023-02-17T05:24:00;101358.44;;;10.01;86.61
29359;BME280;16347;53.232;6.556;2023-02-17T05:26:28;101349.88;;;9.96;87.71
29359;BME280;16347;53.232;6.556;2023-02-17T05:28:56;101333.88;;;9.73;88.18
29359;BME280;16347;53.232;6.556;2023-02-17T05:31:24;101339.72;;;9.88;88.97
29359;BME280;16347;53.232;6.556;2023-02-17T05:33:52;101326.84;;;10.00;88.72
29359;BME280;16347;53.232;6.556;2023-02-17T05:36:22;101319.69;;;10.08;88.27
29359;BME280;16347;53.232;6.556;2023-02-17T05:38:50;101315.97;;;10.09;88.27
29359;BME280;16347;53.232;6.556;2023-02-17T05:41:19;101319.00;;;10.06;88.36
29359;BME280;16347;53.232;6.556;2023-02-17T05:43:47;101312.41;;;10.09;88.35
29359;BME280;16347;53.232;6.556;2023-02-17T05:46:15;101298.41;;;10.13;88.04
29359;BME280;16347;53.232;6.556;2023-02-17T05:48:43;101314.28;;;9.89;88.29
29359;BME280;16347;53.232;6.556;2023-02-17T05:51:12;101319.84;;;9.88;88.63
29359;BME280;16347;53.232;6.556;2023-02-17T05:53:44;101314.56;;;9.86;89.01
29359;BME280;16347;53.232;6.556;2023-02-17T05:56:12;101322.84;;;9.94;89.24
29359;BME280;16347;53.232;6.556;2023-02-17T05:58:40;101328.44;;;10.02;88.62
29359;BME280;16347;53.232;6.556;2023-02-17T06:01:09;101319.13;;;9.95;88.83
29359;BME280;16347;53.232;6.556;2023-02-17T06:03:37;101317.69;;;9.91;89.02
29359;BME280;16347;53.232;6.556;2023-02-17T06:06:06;101316.84;;;9.91;89.15
29359;BME280;16347;53.232;6.556;2023-02-17T06:08:35;101319.13;;;10.05;88.98
29359;BME280;16347;53.232;6.556;2023-02-17T06:11:05;101313.28;;;10.00;88.74
29359;BME280;16347;53.232;6.556;2023-02-17T06:13:33;101314.00;;;9.83;89.33
29359;BME280;16347;53.232;6.556;2023-02-17T06:16:02;101308.56;;;9.83;89.69
29359;BME280;16347;53.232;6.556;2023-02-17T06:18:31;101333.28;;;9.79;89.47
29359;BME280;16347;53.232;6.556;2023-02-17T06:20:59;101329.41;;;9.82;89.78
29359;BME280;16347;53.232;6.556;2023-02-17T06:23:29;101306.72;;;9.83;89.60
29359;BME280;16347;53.232;6.556;2023-02-17T06:25:57;101311.56;;;9.89;89.58
29359;BME280;16347;53.232;6.556;2023-02-17T06:28:27;101300.81;;;9.88;89.33
29359;BME280;16347;53.232;6.556;2023-02-17T06:30:55;101293.84;;;9.75;90.17
29359;BME280;16347;53.232;6.556;2023-02-17T06:33:24;101310.97;;;9.86;89.93
29359;BME280;16347;53.232;6.556;2023-02-17T06:35:52;101300.56;;;10.00;89.25
29359;BME280;16347;53.232;6.556;2023-02-17T06:38:20;101279.66;;;10.01;89.36
29359;BME280;16347;53.232;6.556;2023-02-17T06:40:49;101299.41;;;10.03;89.54
29359;BME280;16347;53.232;6.556;2023-02-17T06:43:17;101302.41;;;9.90;89.47
29359;BME280;16347;53.232;6.556;2023-02-17T06:45:46;101292.53;;;9.99;89.85
29359;BME280;16347;53.232;6.556;2023-02-17T06:48:14;101301.25;;;10.02;89.30
29359;BME280;16347;53.232;6.556;2023-02-17T06:50:42;101290.69;;;9.99;89.32
29359;BME280;16347;53.232;6.556;2023-02-17T06:53:10;101302.41;;;10.09;89.49
29359;BME280;16347;53.232;6.556;2023-02-17T06:55:39;101299.69;;;10.09;88.97
29359;BME280;16347;53.232;6.556;2023-02-17T06:58:07;101287.38;;;10.05;89.34
29359;BME280;16347;53.232;6.556;2023-02-17T07:00:34;101272.53;;;10.00;89.39
29359;BME280;16347;53.232;6.556;2023-02-17T07:03:04;101278.66;;;10.02;89.80
29359;BME280;16347;53.232;6.556;2023-02-17T07:05:33;101277.97;;;10.00;89.92
29359;BME280;16347;53.232;6.556;2023-02-17T07:08:03;101253.91;;;10.05;89.92
29359;BME280;16347;53.232;6.556;2023-02-17T07:10:31;101262.63;;;10.08;89.82
29359;BME280;16347;53.232;6.556;2023-02-17T07:13:00;101267.09;;;10.19;90.12
29359;BME280;16347;53.232;6.556;2023-02-17T07:15:28;101287.25;;;10.07;89.73
29359;BME280;16347;53.232;6.556;2023-02-17T07:17:56;101266.78;;;10.12;90.02
29359;BME280;16347;53.232;6.556;2023-02-17T07:20:26;101273.50;;;10.08;89.73
29359;BME280;16347;53.232;6.556;2023-02-17T07:22:55;101284.09;;;10.02;90.04
29359;BME280;16347;53.232;6.556;2023-02-17T07:25:23;101250.22;;;9.96;90.86
29359;BME280;16347;53.232;6.556;2023-02-17T07:27:51;101251.38;;;10.03;90.66
29359;BME280;16347;53.232;6.556;2023-02-17T07:30:20;101261.38;;;9.93;90.88
29359;BME280;16347;53.232;6.556;2023-02-17T07:32:48;101260.09;;;10.16;90.47
29359;BME280;16347;53.232;6.556;2023-02-17T07:35:17;101263.63;;;10.07;90.91
29359;BME280;16347;53.232;6.556;2023-02-17T07:37:46;101263.94;;;10.23;90.88
29359;BME280;16347;53.232;6.556;2023-02-17T07:40:15;101264.78;;;10.34;89.95
29359;BME280;16347;53.232;6.556;2023-02-17T07:42:43;101253.78;;;10.25;89.88
29359;BME280;16347;53.232;6.556;2023-02-17T07:45:12;101252.75;;;10.07;90.34
29359;BME280;16347;53.232;6.556;2023-02-17T07:47:41;101247.63;;;10.04;90.80
29359;BME280;16347;53.232;6.556;2023-02-17T07:50:10;101249.34;;;10.15;90.68
29359;BME280;16347;53.232;6.556;2023-02-17T07:52:39;101249.34;;;10.15;90.75
29359;BME280;16347;53.232;6.556;2023-02-17T07:55:09;101242.50;;;10.20;90.62
29359;BME280;16347;53.232;6.556;2023-02-17T07:57:38;101241.19;;;10.15;90.98
29359;BME280;16347;53.232;6.556;2023-02-17T08:00:08;101236.47;;;10.07;91.35
29359;BME280;16347;53.232;6.556;2023-02-17T08:02:39;101238.19;;;10.08;91.69
29359;BME280;16347;53.232;6.556;2023-02-17T08:05:07;101237.16;;;10.28;91.24
29359;BME280;16347;53.232;6.556;2023-02-17T08:07:36;101236.78;;;10.23;90.93
29359;BME280;16347;53.232;6.556;2023-02-17T08:10:05;101242.34;;;10.22;91.10
29359;BME280;16347;53.232;6.556;2023-02-17T08:12:55;101222.91;;;10.17;91.23
29359;BME280;16347;53.232;6.556;2023-02-17T08:15:40;101234.47;;;10.19;91.53
29359;BME280;16347;53.232;6.556;2023-02-17T08:18:08;101223.53;;;10.38;90.96
29359;BME280;16347;53.232;6.556;2023-02-17T08:20:37;101233.56;;;10.38;90.88
29359;BME280;16347;53.232;6.556;2023-02-17T08:23:06;101241.41;;;10.50;89.99
29359;BME280;16347;53.232;6.556;2023-02-17T08:25:35;101226.13;;;10.40;90.53
29359;BME280;16347;53.232;6.556;2023-02-17T08:28:05;101228.41;;;10.35;90.38
29359;BME280;16347;53.232;6.556;2023-02-17T08:30:34;101248.13;;;10.46;90.42
29359;BME280;16347;53.232;6.556;2023-02-17T08:33:03;101255.31;;;10.38;90.36
29359;BME280;16347;53.232;6.556;2023-02-17T08:35:32;101202.06;;;10.45;90.29
29359;BME280;16347;53.232;6.556;2023-02-17T08:38:00;101256.56;;;10.53;90.14
29359;BME280;16347;53.232;6.556;2023-02-17T08:40:29;101207.56;;;10.62;89.68
29359;BME280;16347;53.232;6.556;2023-02-17T08:42:57;101240.53;;;10.50;89.50
29359;BME280;16347;53.232;6.556;2023-02-17T08:45:30;101209.47;;;10.52;89.43
29359;BME280;16347;53.232;6.556;2023-02-17T08:47:59;101220.94;;;10.46;89.81
29359;BME280;16347;53.232;6.556;2023-02-17T08:50:28;101208.06;;;10.48;89.89
29359;BME280;16347;53.232;6.556;2023-02-17T08:52:56;101228.50;;;10.52;89.65
29359;BME280;16347;53.232;6.556;2023-02-17T08:55:25;101225.19;;;10.58;88.98
29359;BME280;16347;53.232;6.556;2023-02-17T08:57:59;101234.31;;;10.67;88.54
29359;BME280;16347;53.232;6.556;2023-02-17T09:00:27;101206.88;;;10.60;88.76
29359;BME280;16347;53.232;6.556;2023-02-17T09:02:57;101226.00;;;10.68;88.12
29359;BME280;16347;53.232;6.556;2023-02-17T09:05:25;101209.53;;;10.70;88.12
29359;BME280;16347;53.232;6.556;2023-02-17T09:07:54;101201.19;;;10.81;87.58
29359;BME280;16347;53.232;6.556;2023-02-17T09:10:23;101185.00;;;10.79;87.48
29359;BME280;16347;53.232;6.556;2023-02-17T09:12:52;101204.00;;;10.89;86.90
29359;BME280;16347;53.232;6.556;2023-02-17T09:15:21;101230.63;;;10.86;86.76
29359;BME280;16347;53.232;6.556;2023-02-17T09:17:50;101250.97;;;11.09;86.32
29359;BME280;16347;53.232;6.556;2023-02-17T09:20:20;101209.84;;;10.94;85.78
29359;BME280;16347;53.232;6.556;2023-02-17T09:22:51;101219.88;;;10.94;85.85
29359;BME280;16347;53.232;6.556;2023-02-17T09:25:19;101241.16;;;10.98;85.48
29359;BME280;16347;53.232;6.556;2023-02-17T09:27:48;101208.00;;;10.85;86.18
29359;BME280;16347;53.232;6.556;2023-02-17T09:30:16;101209.34;;;10.81;86.35
29359;BME280;16347;53.232;6.556;2023-02-17T09:32:45;101220.63;;;10.86;86.24
29359;BME280;16347;53.232;6.556;2023-02-17T09:35:15;101227.06;;;10.85;86.13
29359;BME280;16347;53.232;6.556;2023-02-17T09:37:45;101194.59;;;10.84;86.38
29359;BME280;16347;53.232;6.556;2023-02-17T09:40:16;101199.22;;;11.01;86.19
29359;BME280;16347;53.232;6.556;2023-02-17T09:42:46;101191.22;;;11.17;85.25
29359;BME280;16347;53.232;6.556;2023-02-17T09:45:20;101182.25;;;11.07;85.12
29359;BME280;16347;53.232;6.556;2023-02-17T09:47:52;101205.28;;;11.12;84.81
29359;BME280;16347;53.232;6.556;2023-02-17T09:50:28;101200.91;;;11.02;85.08
29359;BME280;16347;53.232;6.556;2023-02-17T09:53:10;101212.50;;;11.04;85.25
29359;BME280;16347;53.232;6.556;2023-02-17T09:55:46;101214.19;;;11.05;85.09
29359;BME280;16347;53.232;6.556;2023-02-17T09:58:20;101227.38;;;11.27;84.08
29359;BME280;16347;53.232;6.556;2023-02-17T10:00:56;101225.22;;;11.30;83.61
29359;BME280;16347;53.232;6.556;2023-02-17T10:03:32;101267.13;;;11.20;83.51
29359;BME280;16347;53.232;6.556;2023-02-17T10:06:11;101270.69;;;11.20;84.25
29359;BME280;16347;53.232;6.556;2023-02-17T10:08:49;101268.84;;;11.39;83.77
29359;BME280;16347;53.232;6.556;2023-02-17T10:11:28;101279.03;;;11.37;83.13
29359;BME280;16347;53.232;6.556;2023-02-17T10:14:04;101263.81;;;11.61;82.89
29359;BME280;16347;53.232;6.556;2023-02-17T10:16:43;101279.53;;;11.50;82.78
29359;BME280;16347;53.232;6.556;2023-02-17T10:19:25;101291.19;;;11.60;82.35
29359;BME280;16347;53.232;6.556;2023-02-17T10:22:06;101276.09;;;11.65;81.96
29359;BME280;16347;53.232;6.556;2023-02-17T10:24:41;101274.41;;;11.64;82.42
29359;BME280;16347;53.232;6.556;2023-02-17T10:27:27;101281.41;;;11.67;81.78
29359;BME280;16347;53.232;6.556;2023-02-17T10:30:24;101276.38;;;11.72;81.93
29359;BME280;16347;53.232;6.556;2023-02-17T10:32:59;101281.31;;;11.59;81.71
29359;BME280;16347;53.232;6.556;2023-02-17T10:35:47;101302.34;;;11.66;81.49
29359;BME280;16347;53.232;6.556;2023-02-17T10:38:32;101270.50;;;11.67;81.77
29359;BME280;16347;53.232;6.556;2023-02-17T10:41:08;101267.38;;;11.71;81.65
29359;BME280;16347;53.232;6.556;2023-02-17T10:43:42;101261.75;;;11.91;80.46
29359;BME280;16347;53.232;6.556;2023-02-17T10:46:14;101269.47;;;11.77;80.49
29359;BME280;16347;53.232;6.556;2023-02-17T10:48:46;101286.25;;;11.73;81.27
29359;BME280;16347;53.232;6.556;2023-02-17T10:51:21;101310.16;;;11.79;80.45
29359;BME280;16347;53.232;6.556;2023-02-17T10:53:54;101341.00;;;11.52;81.79
29359;BME280;16347;53.232;6.556;2023-02-17T10:56:33;101325.50;;;11.53;81.78
29359;BME280;16347;53.232;6.556;2023-02-17T10:59:06;101323.34;;;11.56;81.87
29359;BME280;16347;53.232;6.556;2023-02-17T11:01:42;101332.59;;;11.63;81.42
29359;BME280;16347;53.232;6.556;2023-02-17T11:04:11;101320.06;;;11.53;81.59
29359;BME280;16347;53.232;6.556;2023-02-17T11:06:42;101306.50;;;11.70;80.94
29359;BME280;16347;53.232;6.556;2023-02-17T11:09:18;101284.34;;;11.56;81.21
29359;BME280;16347;53.232;6.556;2023-02-17T11:11:57;101287.16;;;11.64;81.25
29359;BME280;16347;53.232;6.556;2023-02-17T11:14:28;101282.38;;;11.75;80.70
29359;BME280;16347;53.232;6.556;2023-02-17T11:16:59;101287.44;;;11.70;80.69
29359;BME280;16347;53.232;6.556;2023-02-17T11:19:33;101312.84;;;11.61;80.85
29359;BME280;16347;53.232;6.556;2023-02-17T11:22:29;101311.38;;;11.67;80.78
29359;BME280;16347;53.232;6.556;2023-02-17T11:24:57;101292.94;;;11.78;80.63
29359;BME280;16347;53.232;6.556;2023-02-17T11:27:28;101275.38;;;11.73;80.13
29359;BME280;16347;53.232;6.556;2023-02-17T11:30:12;101286.91;;;11.85;79.90
29359;BME280;16347;53.232;6.556;2023-02-17T11:32:42;101282.78;;;11.53;80.47
29359;BME280;16347;53.232;6.556;2023-02-17T11:35:22;101285.81;;;11.77;80.11
29359;BME280;16347;53.232;6.556;2023-02-17T11:37:58;101297.81;;;11.57;80.64
29359;BME280;16347;53.232;6.556;2023-02-17T11:40:29;101298.56;;;11.77;80.32
29359;BME280;16347;53.232;6.556;2023-02-17T11:43:01;101292.13;;;11.78;80.05
29359;BME280;16347;53.232;6.556;2023-02-17T11:45:35;101303.47;;;11.91;80.14
29359;BME280;16347;53.232;6.556;2023-02-17T11:51:09;101279.88;;;11.82;79.79
29359;BME280;16347;53.232;6.556;2023-02-17T11:53:48;101285.94;;;11.76;80.07
29359;BME280;16347;53.232;6.556;2023-02-17T11:56:22;101269.66;;;11.66;80.16
29359;BME280;16347;53.232;6.556;2023-02-17T11:59:10;101293.44;;;11.74;80.50
29359;BME280;16347;53.232;6.556;2023-02-17T12:02:01;101328.06;;;11.99;79.64
29359;BME280;16347;53.232;6.556;2023-02-17T12:04:37;101283.78;;;11.79;79.69
29359;BME280;16347;53.232;6.556;2023-02-17T12:10:10;101300.56;;;12.10;78.90
29359;BME280;16347;53.232;6.556;2023-02-17T12:12:59;101321.59;;;12.18;78.18
29359;BME280;16347;53.232;6.556;2023-02-17T12:15:41;101302.97;;;11.96;78.42
29359;BME280;16347;53.232;6.556;2023-02-17T12:18:31;101292.38;;;12.10;78.44
29359;BME280;16347;53.232;6.556;2023-02-17T12:21:07;101297.72;;;11.94;79.01
29359;BME280;16347;53.232;6.556;2023-02-17T12:24:02;101310.78;;;12.08;78.76
29359;BME280;16347;53.232;6.556;2023-02-17T12:26:37;101304.78;;;12.05;78.40
29359;BME280;16347;53.232;6.556;2023-02-17T12:29:26;101307.06;;;11.92;79.08
29359;BME280;16347;53.232;6.556;2023-02-17T12:32:18;101301.28;;;11.95;79.29
29359;BME280;16347;53.232;6.556;2023-02-17T12:34:52;101286.50;;;11.97;79.36
29359;BME280;16347;53.232;6.556;2023-02-17T12:37:24;101291.84;;;12.07;78.77
29359;BME280;16347;53.232;6.556;2023-02-17T12:39:57;101305.72;;;11.96;79.38
29359;BME280;16347;53.232;6.556;2023-02-17T12:42:31;101311.38;;;12.02;79.35
29359;BME280;16347;53.232;6.556;2023-02-17T12:45:03;101300.88;;;12.07;78.83
29359;BME280;16347;53.232;6.556;2023-02-17T12:47:42;101334.69;;;12.14;78.61
29359;BME280;16347;53.232;6.556;2023-02-17T12:50:18;101311.25;;;12.04;78.59
29359;BME280;16347;53.232;6.556;2023-02-17T12:52:51;101363.16;;;12.02;78.86
29359;BME280;16347;53.232;6.556;2023-02-17T12:55:24;101339.38;;;12.04;78.91
29359;BME280;16347;53.232;6.556;2023-02-17T12:57:54;101321.38;;;12.11;78.45
29359;BME280;16347;53.232;6.556;2023-02-17T13:00:28;101318.25;;;12.06;78.45
29359;BME280;16347;53.232;6.556;2023-02-17T13:03:02;101332.72;;;12.24;78.31
29359;BME280;16347;53.232;6.556;2023-02-17T13:05:33;101337.97;;;12.00;78.44
29359;BME280;16347;53.232;6.556;2023-02-17T13:08:05;101338.59;;;12.12;78.69
29359;BME280;16347;53.232;6.556;2023-02-17T13:10:38;101311.22;;;12.21;78.18
29359;BME280;16347;53.232;6.556;2023-02-17T13:13:10;101349.25;;;12.05;78.03
29359;BME280;16347;53.232;6.556;2023-02-17T13:15:41;101319.72;;;12.18;78.03
29359;BME280;16347;53.232;6.556;2023-02-17T13:18:13;101383.03;;;12.12;77.89
29359;BME280;16347;53.232;6.556;2023-02-17T13:20:56;101361.09;;;12.31;77.55